Bookmark and Share
Track history (hours):
 

Zoo

Last reported at 2012-Jun-07 04:36 UTC. Time now 2014-Apr-20 11:41 UTC.
Position N 39°35' W 074°05'.
Warning: this ship's position is years out of date!

Length 12 m.

Type: Sailing vessel. MMSI: 338129963.

NotesDate/timePositionNaut miles runAvg speedWind from/ knotsBaromVisibWave heightAir tempDewpointWater temp
2012-Jun-07 04:36N 39°35' W 074°05'4 3.9
2012-Jun-07 03:33N 39°39' W 074°05'3 3.1
2012-Jun-07 02:33N 39°42' W 074°03'3 2.8
2012-Jun-07 01:33N 39°44' W 074°02'3 3.0
2012-Jun-07 00:33N 39°47' W 073°60'4 3.6
2012-Jun-06 23:32N 39°48' W 073°56'93 2.0
2012-Jun-05 00:25N 41°05' W 072°47'7 7.9
2012-Jun-04 23:33N 41°06' W 072°38'8 7.7
2012-Jun-04 22:33N 41°08' W 072°28'6 6.0
2012-Jun-04 21:33N 41°10' W 072°20'5 5.0
2012-Jun-04 20:33N 41°11' W 072°14'5 4.6
2012-Jun-04 19:33N 41°06' W 072°14'3 3.2
2012-Jun-04 18:33N 41°03' W 072°16'2 2.5
2012-Jun-04 17:33N 41°01' W 072°17'1 0.5
2012-Jun-04 16:32N 41°00' W 072°17'1 0.2
2012-Jun-04 09:33N 41°01' W 072°16'6 5.8
2012-Jun-04 08:33N 41°07' W 072°13'5 5.2
2012-Jun-04 07:33N 41°09' W 072°07'5 4.6
2012-Jun-04 06:33N 41°08' W 072°01'5 4.6
2012-Jun-04 05:33N 41°08' W 071°55'4 4.2
2012-Jun-04 04:36N 41°08' W 071°50'5 5.0
2012-Jun-04 03:33N 41°08' W 071°43'6 6.4
2012-Jun-04 02:33N 41°07' W 071°34'6 6.4
2012-Jun-04 01:33N 41°07' W 071°26'6 6.0
2012-Jun-04 00:33N 41°06' W 071°18'6 5.8
2012-Jun-03 23:28N 41°06' W 071°10'5 5.7
2012-Jun-03 22:33N 41°05' W 071°03'5 4.7
2012-Jun-03 21:30N 41°04' W 070°56'  
2012-May-31 12:33N 41°22' W 071°12'6 6.4
2012-May-31 11:33N 41°22' W 071°20'6 6.4
2012-May-31 10:35N 41°21' W 071°28'6 5.8
2012-May-31 09:33N 41°19' W 071°36'6 5.9
2012-May-31 08:33N 41°18' W 071°44'6 5.7
2012-May-31 07:33N 41°16' W 071°51'6 6.0
2012-May-31 06:33N 41°15' W 071°59'7 6.9
2012-May-31 05:33N 41°14' W 072°08'8 8.1
2012-May-31 04:36N 41°13' W 072°18'9 8.5
2012-May-31 03:33N 41°11' W 072°29'8 8.0
2012-May-31 02:33N 41°09' W 072°40'7 7.0
2012-May-31 01:33N 41°08' W 072°49'2 6.4
2012-May-31 01:10N 41°07' W 072°52'4 6.1
2012-May-31 00:30N 41°06' W 072°57'7 6.2
2012-May-30 23:26N 41°05' W 073°06'5 6.0
2012-May-30 22:33N 41°03' W 073°12'6 5.8
2012-May-30 21:32N 41°03' W 073°20'6 2.0
2012-May-30 18:26N 41°02' W 073°29'2 2.7
2012-May-30 17:33N 41°00' W 073°31'2 1.8
2012-May-30 16:33N 41°02' W 073°32'4 4.2
2012-May-30 15:33N 41°00' W 073°37'77 2.4
2012-May-29 07:33N 39°45' W 073°58'6 5.9
2012-May-29 06:33N 39°39' W 073°59'  

Dump ship's entire track history

sailing weather and tide predictions

Zoo — WRT4320 — position and weather